TimeCDT,TemperatureF,Dew PointF,Humidity,Sea Level PressureIn,VisibilityMPH,Wind Direction,Wind SpeedMPH,Gust SpeedMPH,PrecipitationIn,Events,Conditions,WindDirDegrees,DateUTC
12:15 AM,80.6,60.8,51,29.96,10.0,West,11.5,-,N/A,,Scattered Clouds,260,2013-09-11 05:15:00
12:35 AM,80.6,60.8,51,29.96,10.0,WSW,12.7,-,N/A,,Scattered Clouds,240,2013-09-11 05:35:00
12:55 AM,78.8,60.8,54,29.96,10.0,WSW,9.2,-,N/A,,Clear,250,2013-09-11 05:55:00
1:15 AM,78.8,60.8,54,29.97,10.0,WSW,8.1,-,N/A,,Clear,240,2013-09-11 06:15:00
1:35 AM,78.8,60.8,54,29.97,10.0,WSW,9.2,-,N/A,,Clear,250,2013-09-11 06:35:00
1:55 AM,78.8,60.8,54,29.98,10.0,WNW,6.9,-,N/A,,Clear,300,2013-09-11 06:55:00
2:15 AM,77.0,62.6,61,29.99,10.0,NW,5.8,-,N/A,,Mostly Cloudy,320,2013-09-11 07:15:00
2:35 AM,73.4,60.8,65,29.99,10.0,NNW,4.6,-,N/A,,Mostly Cloudy,340,2013-09-11 07:35:00
2:55 AM,73.4,60.8,65,29.99,10.0,NE,5.8,-,N/A,,Scattered Clouds,50,2013-09-11 07:55:00
3:15 AM,71.6,60.8,69,30.00,10.0,NE,6.9,-,N/A,,Clear,40,2013-09-11 08:15:00
3:35 AM,69.8,60.8,73,30.02,10.0,North,6.9,-,N/A,,Scattered Clouds,360,2013-09-11 08:35:00
3:55 AM,69.8,62.6,78,30.01,10.0,NNE,6.9,-,N/A,,Scattered Clouds,30,2013-09-11 08:55:00
4:15 AM,69.8,62.6,78,30.00,10.0,East,3.5,-,N/A,,Clear,80,2013-09-11 09:15:00
4:35 AM,69.8,62.6,78,30.01,10.0,Calm,Calm,-,N/A,,Clear,0,2013-09-11 09:35:00
4:55 AM,68.0,62.6,83,30.02,10.0,North,4.6,-,N/A,,Clear,350,2013-09-11 09:55:00
5:15 AM,68.0,62.6,83,30.02,10.0,Calm,Calm,-,N/A,,Clear,0,2013-09-11 10:15:00
5:35 AM,68.0,62.6,83,30.01,10.0,Calm,Calm,-,N/A,,Clear,0,2013-09-11 10:35:00
5:55 AM,69.8,62.6,78,30.02,10.0,Calm,Calm,-,N/A,,Scattered Clouds,0,2013-09-11 10:55:00
6:15 AM,68.0,62.6,83,30.03,10.0,Calm,Calm,-,N/A,,Scattered Clouds,0,2013-09-11 11:15:00
6:35 AM,68.0,62.6,83,30.03,10.0,Calm,Calm,-,N/A,,Clear,0,2013-09-11 11:35:00
6:50 AM,68.0,62.6,83,30.05,10.0,Calm,Calm,-,N/A,,Overcast,0,2013-09-11 11:50:00
6:55 AM,68.0,62.6,83,30.06,10.0,Calm,Calm,-,N/A,,Scattered Clouds,0,2013-09-11 11:55:00
7:45 AM,69.8,64.4,83,30.08,10.0,Calm,Calm,-,N/A,,Overcast,0,2013-09-11 12:45:00
8:45 AM,71.6,62.6,73,30.04,10.0,Calm,Calm,-,N/A,,Overcast,0,2013-09-11 13:45:00
9:45 AM,71.6,62.6,73,30.03,10.0,SSW,4.6,-,N/A,,Clear,210,2013-09-11 14:45:00
10:45 AM,77.0,62.6,61,30.03,10.0,SSW,6.9,-,N/A,,Clear,200,2013-09-11 15:45:00
11:45 AM,77.0,60.8,57,30.04,10.0,WSW,11.5,-,N/A,,Scattered Clouds,250,2013-09-11 16:45:00
12:45 PM,78.8,60.8,54,30.04,10.0,WSW,12.7,-,N/A,,Scattered Clouds,240,2013-09-11 17:45:00
1:45 PM,75.2,62.6,65,30.04,10.0,WSW,11.5,-,N/A,,Mostly Cloudy,250,2013-09-11 18:45:00
2:45 PM,78.8,62.6,57,30.03,10.0,WSW,11.5,-,N/A,,Mostly Cloudy,240,2013-09-11 19:45:00
3:45 PM,80.6,60.8,51,30.01,10.0,West,11.5,17.3,N/A,,Clear,280,2013-09-11 20:45:00
4:45 PM,80.6,60.8,51,30.01,10.0,West,10.4,-,N/A,,Clear,280,2013-09-11 21:45:00
5:45 PM,80.6,60.8,51,30.00,10.0,West,8.1,-,N/A,,Clear,270,2013-09-11 22:45:00
6:45 PM,78.8,60.8,54,30.00,10.0,West,5.8,-,N/A,,Clear,270,2013-09-11 23:45:00
7:45 PM,73.4,60.8,65,29.98,10.0,West,4.6,-,N/A,,Clear,280,2013-09-12 00:45:00
8:45 PM,71.6,62.6,73,29.99,10.0,WSW,3.5,-,N/A,,Clear,240,2013-09-12 01:45:00
9:15 PM,69.8,60.8,73,29.99,10.0,West,4.6,-,N/A,,Clear,260,2013-09-12 02:15:00
9:35 PM,69.8,60.8,73,29.99,10.0,WSW,4.6,-,N/A,,Clear,250,2013-09-12 02:35:00
9:55 PM,69.8,60.8,73,29.99,10.0,West,4.6,-,N/A,,Clear,260,2013-09-12 02:55:00
10:15 PM,69.8,60.8,73,29.98,10.0,West,4.6,-,N/A,,Clear,260,2013-09-12 03:15:00
10:35 PM,69.8,60.8,73,29.98,10.0,West,5.8,-,N/A,,Clear,270,2013-09-12 03:35:00
10:55 PM,69.8,60.8,73,29.98,10.0,West,6.9,-,N/A,,Clear,260,2013-09-12 03:55:00
11:15 PM,69.8,60.8,73,29.98,10.0,West,6.9,-,N/A,,Clear,260,2013-09-12 04:15:00
11:35 PM,69.8,60.8,73,29.98,10.0,West,5.8,-,N/A,,Clear,260,2013-09-12 04:35:00
11:55 PM,69.8,60.8,73,29.98,10.0,West,8.1,-,N/A,,Clear,280,2013-09-12 04:55:00